Time;durP1;ratioP1;P1;durP2;ratioP2;P2;SDS_P1;SDS_P2;PMS_P1;PMS_P2;Temp;Humidity;BMP_temperature;BMP_pressure;BME280_temperature;BME280_humidity;BME280_pressure;Samples;Min_cycle;Max_cycle;Signal;HPM_P1;HPM_P2
2023/01/26 00:01:17;;;;;;;12.73;7.93;;;;;;;;;;5031698;28;20025;-77
2023/01/26 00:03:43;;;;;;;12.70;8.02;;;;;;;;;;5014202;28;20033;-77
2023/01/26 00:06:09;;;;;;;11.05;7.75;;;;;;;;;;5030342;28;20052;-77
2023/01/26 00:08:44;;;;;;;12.23;8.07;;;;;;;;;;5030782;28;20048;-77
2023/01/26 00:11:10;;;;;;;11.55;7.65;;;;;;;;;;5027810;28;20508;-77
2023/01/26 00:13:36;;;;;;;11.02;7.45;;;;;;;;;;5034470;28;20060;-77
2023/01/26 00:16:01;;;;;;;14.40;7.90;;;;;;;;;;5026322;28;20116;-76
2023/01/26 00:18:27;;;;;;;11.25;7.47;;;;;;;;;;5036389;28;20045;-77
2023/01/26 00:20:56;;;;;;;13.52;7.90;;;;;;;;;;5031504;28;20064;-77
2023/01/26 00:23:22;;;;;;;10.90;7.30;;;;;;;;;;5036293;28;20037;-77
2023/01/26 00:25:47;;;;;;;13.43;8.35;;;;;;;;;;5031284;28;20447;-77
2023/01/26 00:28:12;;;;;;;12.40;7.90;;;;;;;;;;5022134;28;20825;-77
2023/01/26 00:30:38;;;;;;;12.35;8.07;;;;;;;;;;5029776;28;20041;-77
2023/01/26 00:33:03;;;;;;;11.30;7.97;;;;;;;;;;5032874;28;20404;-77
2023/01/26 00:35:29;;;;;;;14.80;7.97;;;;;;;;;;5016607;28;20036;-77
2023/01/26 00:37:54;;;;;;;13.15;7.97;;;;;;;;;;5028912;28;20473;-77
2023/01/26 00:40:20;;;;;;;14.75;9.02;;;;;;;;;;5031210;28;20571;-77
2023/01/26 00:42:45;;;;;;;12.90;8.48;;;;;;;;;;5029336;28;20026;-77
2023/01/26 00:45:11;;;;;;;14.75;8.60;;;;;;;;;;5030150;28;20041;-76
2023/01/26 00:47:36;;;;;;;14.50;8.90;;;;;;;;;;5030667;28;20029;-76
2023/01/26 00:50:03;;;;;;;14.80;8.55;;;;;;;;;;5029126;28;20034;-75
2023/01/26 00:52:29;;;;;;;13.60;8.90;;;;;;;;;;5040733;28;20065;-77
2023/01/26 00:54:55;;;;;;;16.55;9.52;;;;;;;;;;5029136;28;20048;-77
2023/01/26 00:57:21;;;;;;;13.98;9.48;;;;;;;;;;5029325;28;20029;-76
2023/01/26 00:59:46;;;;;;;13.75;7.95;;;;;;;;;;5040927;28;20065;-76
2023/01/26 01:02:12;;;;;;;13.07;8.50;;;;;;;;;;5029540;28;20021;-76
2023/01/26 01:04:38;;;;;;;13.95;8.98;;;;;;;;;;5029538;28;20896;-76
2023/01/26 01:07:03;;;;;;;13.93;8.85;;;;;;;;;;5040628;28;20148;-76
2023/01/26 01:09:31;;;;;;;12.55;8.45;;;;;;;;;;5013278;28;20071;-76
2023/01/26 01:11:56;;;;;;;17.67;8.80;;;;;;;;;;5037320;28;20017;-75
2023/01/26 01:14:22;;;;;;;11.38;7.35;;;;;;;;;;5030255;28;20062;-76
2023/01/26 01:16:47;;;;;;;12.75;8.18;;;;;;;;;;5038737;28;20117;-78
2023/01/26 01:19:14;;;;;;;14.88;9.10;;;;;;;;;;5012822;28;20040;-76
2023/01/26 01:21:40;;;;;;;13.30;8.25;;;;;;;;;;5029015;28;20021;-76
2023/01/26 01:24:06;;;;;;;14.02;8.20;;;;;;;;;;5039536;28;20048;-77
2023/01/26 01:26:31;;;;;;;11.30;7.53;;;;;;;;;;5029924;28;20559;-76
2023/01/26 01:28:56;;;;;;;12.48;7.55;;;;;;;;;;5036402;28;20124;-75
2023/01/26 01:31:22;;;;;;;12.77;8.35;;;;;;;;;;5009608;28;20125;-77
2023/01/26 01:33:47;;;;;;;14.38;9.00;;;;;;;;;;5012543;28;20036;-76
2023/01/26 01:36:13;;;;;;;11.70;7.30;;;;;;;;;;5028162;28;20025;-76
2023/01/26 01:38:39;;;;;;;;;;;;;;;;;;5019283;28;20042;-77
2023/01/26 01:41:05;;;;;;;12.80;8.38;;;;;;;;;;5027870;28;19963;-77
2023/01/26 01:43:30;;;;;;;10.90;7.53;;;;;;;;;;5012555;28;20049;-77
2023/01/26 01:45:56;;;;;;;13.30;8.77;;;;;;;;;;5030392;28;20021;-76
2023/01/26 01:48:30;;;;;;;16.30;8.30;;;;;;;;;;5029027;28;20046;-77
2023/01/26 01:51:00;;;;;;;13.43;8.75;;;;;;;;;;5045268;28;20045;-76
2023/01/26 01:53:30;;;;;;;14.85;8.10;;;;;;;;;;5028789;28;20040;-76
2023/01/26 01:55:57;;;;;;;15.98;8.25;;;;;;;;;;5041744;28;20495;-76
2023/01/26 01:58:22;;;;;;;12.05;7.57;;;;;;;;;;5012495;28;20033;-75
2023/01/26 02:00:48;;;;;;;;;;;;;;;;;;5016850;28;20033;-76
2023/01/26 02:03:14;;;;;;;13.20;8.57;;;;;;;;;;5036747;28;19909;-76
2023/01/26 02:05:43;;;;;;;17.00;8.60;;;;;;;;;;5029374;28;20120;-76
2023/01/26 02:08:08;;;;;;;12.95;8.10;;;;;;;;;;5018908;28;20572;-75
2023/01/26 02:10:34;;;;;;;11.75;7.43;;;;;;;;;;5028311;28;20116;-75
2023/01/26 02:12:59;;;;;;;12.57;8.13;;;;;;;;;;5028628;28;20121;-76
2023/01/26 02:15:25;;;;;;;13.05;8.07;;;;;;;;;;5031181;28;20419;-77
2023/01/26 02:17:52;;;;;;;11.65;7.38;;;;;;;;;;5016089;28;20033;-77
2023/01/26 02:20:25;;;;;;;12.13;7.90;;;;;;;;;;5023064;28;20033;-77
2023/01/26 02:22:51;;;;;;;14.98;8.20;;;;;;;;;;5027669;28;20073;-77
2023/01/26 02:25:39;;;;;;;12.40;7.47;;;;;;;;;;5048580;28;20029;-77
2023/01/26 02:28:04;;;;;;;14.68;8.02;;;;;;;;;;5031983;28;20032;-77
2023/01/26 02:30:30;;;;;;;11.27;7.75;;;;;;;;;;5031874;28;20120;-77
2023/01/26 02:32:55;;;;;;;13.25;8.90;;;;;;;;;;5031990;28;20060;-78
2023/01/26 02:35:21;;;;;;;11.95;7.65;;;;;;;;;;5032194;28;20431;-77
2023/01/26 02:37:46;;;;;;;10.93;7.43;;;;;;;;;;5015336;28;20029;-77
2023/01/26 02:40:15;;;;;;;13.13;7.93;;;;;;;;;;5041496;28;20029;-76
2023/01/26 02:42:40;;;;;;;14.05;7.72;;;;;;;;;;5016796;28;20037;-77
2023/01/26 02:45:10;;;;;;;12.30;8.48;;;;;;;;;;5015716;28;20030;-77
2023/01/26 02:47:35;;;;;;;12.30;7.43;;;;;;;;;;5031587;28;20156;-77
2023/01/26 02:50:03;;;;;;;12.90;8.07;;;;;;;;;;5031625;28;20025;-77
2023/01/26 02:52:32;;;;;;;19.45;8.02;;;;;;;;;;5026792;28;20135;-77
2023/01/26 02:57:46;;;;;;;14.48;8.27;;;;;;;;;;5025189;28;20030;-77
2023/01/26 03:00:13;;;;;;;13.43;8.50;;;;;;;;;;5031647;28;20017;-77
2023/01/26 03:02:39;;;;;;;17.25;8.32;;;;;;;;;;5016801;28;20034;-77
2023/01/26 03:05:04;;;;;;;13.43;8.32;;;;;;;;;;5014940;28;20036;-78
2023/01/26 03:07:30;;;;;;;14.57;8.27;;;;;;;;;;5031076;28;20409;-78
2023/01/26 03:09:57;;;;;;;16.30;8.30;;;;;;;;;;5007920;28;20022;-77
2023/01/26 03:12:23;;;;;;;15.48;7.78;;;;;;;;;;5029687;28;20041;-77
2023/01/26 03:15:33;;;;;;;14.43;8.43;;;;;;;;;;5031191;28;20507;-75
2023/01/26 03:17:36;;;;;;;15.02;9.30;;;;;;;;;;5021667;28;20068;-78
2023/01/26 03:28:21;;;;;;;16.85;9.10;;;;;;;;;;5030729;28;20389;-76
2023/01/26 03:30:48;;;;;;;14.85;9.20;;;;;;;;;;5031178;28;20025;-76
2023/01/26 03:33:17;;;;;;;13.73;8.75;;;;;;;;;;5014495;28;20048;-76
2023/01/26 03:35:43;;;;;;;15.05;9.18;;;;;;;;;;5013559;28;20033;-77
2023/01/26 03:38:08;;;;;;;16.58;8.98;;;;;;;;;;5014405;28;20125;-77
2023/01/26 03:57:07;;;;;;;14.73;9.25;;;;;;;;;;5032655;28;20052;-77
2023/01/26 03:59:39;;;;;;;17.38;10.55;;;;;;;;;;5013770;28;20052;-77
2023/01/26 04:10:34;;;;;;;16.00;9.50;;;;;;;;;;5032230;28;20404;-76
2023/01/26 04:21:32;;;;;;;15.32;9.27;;;;;;;;;;5030317;28;20714;-77
2023/01/26 04:23:59;;;;;;;17.05;10.02;;;;;;;;;;5026838;28;20052;-77
2023/01/26 04:26:25;;;;;;;16.38;9.48;;;;;;;;;;5022783;28;20025;-76
2023/01/26 04:28:51;;;;;;;15.80;9.77;;;;;;;;;;5034727;28;20553;-77
2023/01/26 04:31:17;;;;;;;16.65;9.30;;;;;;;;;;5015947;28;20029;-76
2023/01/26 04:33:46;;;;;;;17.33;10.15;;;;;;;;;;5017314;28;20034;-77
2023/01/26 04:36:11;;;;;;;15.75;8.80;;;;;;;;;;5031823;28;20045;-77
2023/01/26 04:38:42;;;;;;;17.55;9.35;;;;;;;;;;5030958;28;20041;-78
2023/01/26 04:41:08;;;;;;;15.75;9.82;;;;;;;;;;5017751;28;20096;-77
2023/01/26 04:43:40;;;;;;;16.52;8.73;;;;;;;;;;5045096;28;20059;-77
2023/01/26 04:46:06;;;;;;;16.73;10.23;;;;;;;;;;5021503;28;20116;-77
2023/01/26 04:48:33;;;;;;;16.67;10.15;;;;;;;;;;5040716;28;20034;-77
2023/01/26 04:51:00;;;;;;;17.60;10.77;;;;;;;;;;5045321;28;20520;-77
2023/01/26 04:53:25;;;;;;;16.05;10.35;;;;;;;;;;5029539;28;20120;-76
2023/01/26 04:55:51;;;;;;;21.48;11.13;;;;;;;;;;5043201;28;20124;-77
2023/01/26 04:58:16;;;;;;;18.25;10.77;;;;;;;;;;5026504;28;20047;-77
2023/01/26 05:00:42;;;;;;;16.52;10.07;;;;;;;;;;5012196;28;20029;-76
2023/01/26 05:03:08;;;;;;;18.05;9.93;;;;;;;;;;5028787;28;20029;-78
2023/01/26 05:05:37;;;;;;;22.75;11.25;;;;;;;;;;5027065;28;20033;-77
2023/01/26 05:08:03;;;;;;;19.25;11.15;;;;;;;;;;5029945;28;20147;-77
2023/01/26 05:10:32;;;;;;;16.17;9.18;;;;;;;;;;5012990;28;20041;-77
2023/01/26 05:13:21;;;;;;;19.70;11.00;;;;;;;;;;5024132;28;20445;-78
2023/01/26 05:16:13;;;;;;;17.85;10.30;;;;;;;;;;5030277;28;20041;-78
2023/01/26 05:19:05;;;;;;;21.70;12.05;;;;;;;;;;5032623;28;20040;-77
2023/01/26 05:21:39;;;;;;;19.38;11.40;;;;;;;;;;5014085;28;20040;-77
2023/01/26 05:24:30;;;;;;;17.77;10.73;;;;;;;;;;5029317;28;20076;-77
2023/01/26 05:29:43;;;;;;;20.20;10.80;;;;;;;;;;5038928;28;20045;-76
2023/01/26 05:32:08;;;;;;;20.85;10.43;;;;;;;;;;5022828;28;20497;-77
2023/01/26 05:34:35;;;;;;;18.75;11.55;;;;;;;;;;5033264;28;20037;-78
2023/01/26 05:37:02;;;;;;;20.10;10.65;;;;;;;;;;5033845;28;20535;-78
2023/01/26 05:39:29;;;;;;;18.67;9.30;;;;;;;;;;5026445;28;20576;-78
2023/01/26 05:41:57;;;;;;;18.05;10.50;;;;;;;;;;5035836;28;20048;-76
2023/01/26 05:44:58;;;;;;;17.75;10.15;;;;;;;;;;4995706;28;20088;-78
2023/01/26 05:47:24;;;;;;;22.33;11.43;;;;;;;;;;5029727;28;20041;-76
2023/01/26 05:49:50;;;;;;;20.50;12.13;;;;;;;;;;5015607;28;20144;-79
2023/01/26 05:52:20;;;;;;;18.58;10.50;;;;;;;;;;5032655;28;20264;-78
2023/01/26 05:54:46;;;;;;;20.73;11.48;;;;;;;;;;5031931;28;20944;-78
2023/01/26 05:57:11;;;;;;;20.77;11.13;;;;;;;;;;5027784;28;20064;-77
2023/01/26 05:59:42;;;;;;;21.20;11.13;;;;;;;;;;5016377;28;20025;-77
2023/01/26 06:02:10;;;;;;;20.60;11.50;;;;;;;;;;5049011;28;20474;-78
2023/01/26 06:04:39;;;;;;;18.13;10.68;;;;;;;;;;5016069;28;20454;-78
2023/01/26 06:07:05;;;;;;;22.48;11.57;;;;;;;;;;5048591;28;20033;-79
2023/01/26 06:09:35;;;;;;;20.33;12.30;;;;;;;;;;5032043;28;20033;-78
2023/01/26 06:12:15;;;;;;;20.50;11.52;;;;;;;;;;5036086;28;20446;-78
2023/01/26 06:14:50;;;;;;;22.45;11.07;;;;;;;;;;5032625;28;20508;-78
2023/01/26 06:17:16;;;;;;;17.65;10.10;;;;;;;;;;5048735;28;20091;-77
2023/01/26 06:19:42;;;;;;;20.35;11.40;;;;;;;;;;5015534;28;20025;-78
2023/01/26 06:22:08;;;;;;;19.77;10.80;;;;;;;;;;5037289;28;20469;-77
2023/01/26 06:24:35;;;;;;;18.42;11.23;;;;;;;;;;5020953;28;20060;-76
2023/01/26 06:27:01;;;;;;;20.67;12.52;;;;;;;;;;5057641;28;20067;-77
2023/01/26 06:29:26;;;;;;;20.80;11.43;;;;;;;;;;5012192;28;20029;-79
2023/01/26 06:31:53;;;;;;;22.00;12.55;;;;;;;;;;5031765;28;20043;-78
2023/01/26 06:34:20;;;;;;;23.27;12.27;;;;;;;;;;5007254;28;20477;-77
2023/01/26 06:36:45;;;;;;;20.77;11.32;;;;;;;;;;5039423;28;20132;-77
2023/01/26 06:39:18;;;;;;;20.83;11.38;;;;;;;;;;5028860;28;20124;-79
2023/01/26 06:41:44;;;;;;;21.83;12.98;;;;;;;;;;5014958;28;20496;-77
2023/01/26 06:44:09;;;;;;;23.67;11.68;;;;;;;;;;5043552;28;20040;-77
2023/01/26 06:46:35;;;;;;;21.35;11.32;;;;;;;;;;5015143;28;20475;-78
2023/01/26 06:49:03;;;;;;;20.80;11.13;;;;;;;;;;5015636;28;20102;-78
2023/01/26 06:51:41;;;;;;;20.95;11.43;;;;;;;;;;5040298;28;20032;-78
2023/01/26 06:54:09;;;;;;;21.20;10.85;;;;;;;;;;5042093;28;20045;-78
2023/01/26 06:56:54;;;;;;;21.40;11.45;;;;;;;;;;5030995;28;20575;-78
2023/01/26 06:59:37;;;;;;;21.13;11.25;;;;;;;;;;5031532;28;20061;-78
2023/01/26 07:02:03;;;;;;;20.23;11.38;;;;;;;;;;5032846;28;20064;-78
2023/01/26 07:04:28;;;;;;;20.38;11.38;;;;;;;;;;5032401;28;20041;-78
2023/01/26 07:06:54;;;;;;;19.20;11.73;;;;;;;;;;5040773;28;20037;-78
2023/01/26 07:09:19;;;;;;;20.55;11.95;;;;;;;;;;5036661;28;20892;-78
2023/01/26 07:11:45;;;;;;;18.33;10.68;;;;;;;;;;5020896;28;20492;-77
2023/01/26 07:14:10;;;;;;;17.15;10.50;;;;;;;;;;5029384;28;20057;-77
2023/01/26 07:16:35;;;;;;;20.35;10.30;;;;;;;;;;5032004;28;20508;-77
2023/01/26 07:19:01;;;;;;;21.02;10.32;;;;;;;;;;5032088;28;20094;-77
2023/01/26 07:21:27;;;;;;;17.92;10.65;;;;;;;;;;5032014;28;20124;-78
2023/01/26 07:23:52;;;;;;;20.77;11.68;;;;;;;;;;5029919;28;20156;-77
2023/01/26 07:26:18;;;;;;;;;;;;;;;;;;5031024;28;20044;-77
2023/01/26 07:28:44;;;;;;;18.83;11.18;;;;;;;;;;5030431;28;19909;-76
2023/01/26 07:31:09;;;;;;;19.13;11.32;;;;;;;;;;5014071;28;20037;-77
2023/01/26 07:33:35;;;;;;;22.98;11.48;;;;;;;;;;5035616;28;20428;-79
2023/01/26 07:36:01;;;;;;;18.08;10.60;;;;;;;;;;5029521;28;20041;-78
2023/01/26 07:38:27;;;;;;;18.70;11.38;;;;;;;;;;5030038;28;20029;-78
2023/01/26 07:40:53;;;;;;;17.13;10.90;;;;;;;;;;5030946;28;20025;-78
2023/01/26 07:43:18;;;;;;;17.15;10.65;;;;;;;;;;5030695;28;20029;-78
2023/01/26 07:45:50;;;;;;;20.23;11.48;;;;;;;;;;5029860;28;20412;-78
2023/01/26 07:48:16;;;;;;;17.67;10.70;;;;;;;;;;5031575;28;20056;-78
2023/01/26 07:50:41;;;;;;;19.27;11.77;;;;;;;;;;5039686;28;20070;-78
2023/01/26 07:53:08;;;;;;;22.17;11.60;;;;;;;;;;5030486;28;20480;-78
2023/01/26 07:55:34;;;;;;;20.48;11.77;;;;;;;;;;5031007;28;20022;-78
2023/01/26 07:57:59;;;;;;;21.38;11.40;;;;;;;;;;5013884;28;20103;-77
2023/01/26 08:00:25;;;;;;;20.17;12.43;;;;;;;;;;5036525;28;20865;-78
2023/01/26 08:02:50;;;;;;;18.95;11.23;;;;;;;;;;5037319;28;20069;-78
2023/01/26 08:05:16;;;;;;;19.67;11.23;;;;;;;;;;5031114;28;20034;-79
2023/01/26 08:07:41;;;;;;;20.98;12.13;;;;;;;;;;5013448;28;20046;-78
2023/01/26 08:10:09;;;;;;;19.90;12.40;;;;;;;;;;5036496;28;20117;-78
2023/01/26 08:12:35;;;;;;;20.88;10.93;;;;;;;;;;5030212;28;20072;-78
2023/01/26 08:15:00;;;;;;;20.23;12.05;;;;;;;;;;5034116;28;20536;-78
2023/01/26 08:17:27;;;;;;;18.55;11.00;;;;;;;;;;5040763;28;20037;-78
2023/01/26 08:19:52;;;;;;;19.75;11.02;;;;;;;;;;5032706;28;20413;-77
2023/01/26 08:22:18;;;;;;;20.42;11.70;;;;;;;;;;5032217;28;20033;-79
2023/01/26 08:24:43;;;;;;;18.65;10.60;;;;;;;;;;5018993;28;20443;-78
2023/01/26 08:27:09;;;;;;;20.83;11.93;;;;;;;;;;5030997;28;20064;-78
2023/01/26 08:29:34;;;;;;;18.38;10.45;;;;;;;;;;5031130;28;20032;-77
2023/01/26 08:32:00;;;;;;;16.25;10.82;;;;;;;;;;5045638;28;20071;-79
2023/01/26 08:34:25;;;;;;;23.90;11.25;;;;;;;;;;5033238;28;20041;-78
2023/01/26 08:36:51;;;;;;;18.67;10.85;;;;;;;;;;5037793;28;20377;-78
2023/01/26 08:39:16;;;;;;;18.80;11.73;;;;;;;;;;5042223;28;20017;-78
2023/01/26 08:41:42;;;;;;;17.95;9.98;;;;;;;;;;5035532;28;20040;-77
2023/01/26 08:44:08;;;;;;;22.15;10.75;;;;;;;;;;5032371;28;20033;-78
2023/01/26 08:46:33;;;;;;;16.73;10.23;;;;;;;;;;5057252;28;20052;-79
2023/01/26 08:48:59;;;;;;;16.50;10.43;;;;;;;;;;5032161;28;20025;-78
2023/01/26 08:51:24;;;;;;;18.02;10.02;;;;;;;;;;5029981;28;20144;-78
2023/01/26 08:53:52;;;;;;;18.80;10.75;;;;;;;;;;5012419;28;20477;-79
2023/01/26 08:56:17;;;;;;;18.73;9.80;;;;;;;;;;5030218;28;20033;-78
2023/01/26 08:58:43;;;;;;;18.48;10.45;;;;;;;;;;5025870;28;20499;-78
2023/01/26 09:01:12;;;;;;;16.83;9.80;;;;;;;;;;5046905;28;20041;-78
2023/01/26 09:03:37;;;;;;;18.48;9.85;;;;;;;;;;5030264;28;20030;-77
2023/01/26 09:06:03;;;;;;;18.83;10.75;;;;;;;;;;5028914;28;20042;-79
2023/01/26 09:08:29;;;;;;;17.52;10.40;;;;;;;;;;5016911;28;20444;-77
2023/01/26 09:10:54;;;;;;;15.50;9.05;;;;;;;;;;5035698;28;20083;-79
2023/01/26 09:13:20;;;;;;;17.58;9.85;;;;;;;;;;5018982;28;20496;-80
2023/01/26 09:15:45;;;;;;;16.88;9.50;;;;;;;;;;5029989;28;20064;-78
2023/01/26 09:18:11;;;;;;;16.40;9.55;;;;;;;;;;5031895;28;20083;-78
2023/01/26 09:20:37;;;;;;;17.25;10.25;;;;;;;;;;5030922;28;20049;-78
2023/01/26 09:23:02;;;;;;;15.50;9.15;;;;;;;;;;5028595;28;20507;-78
2023/01/26 09:25:28;;;;;;;18.00;9.70;;;;;;;;;;5029615;28;20037;-78
2023/01/26 09:27:55;;;;;;;18.75;9.80;;;;;;;;;;5028982;28;20116;-79
2023/01/26 09:30:23;;;;;;;17.52;9.85;;;;;;;;;;5031476;28;20029;-79
2023/01/26 09:32:48;;;;;;;20.42;8.80;;;;;;;;;;5037584;28;20484;-78
2023/01/26 09:35:14;;;;;;;15.02;9.50;;;;;;;;;;5039316;28;20094;-78
2023/01/26 09:37:39;;;;;;;16.30;9.63;;;;;;;;;;5027919;28;20116;-78
2023/01/26 09:40:05;;;;;;;16.70;10.20;;;;;;;;;;5016389;28;20056;-79
2023/01/26 09:42:59;;;;;;;18.27;9.55;;;;;;;;;;5030113;28;20120;-79
2023/01/26 09:45:32;;;;;;;14.25;9.07;;;;;;;;;;5028170;28;20030;-79
2023/01/26 09:47:58;;;;;;;17.10;9.73;;;;;;;;;;5032161;28;20477;-77
2023/01/26 09:50:25;;;;;;;15.90;9.65;;;;;;;;;;5028123;28;20052;-79
2023/01/26 09:52:58;;;;;;;16.55;9.95;;;;;;;;;;5028189;28;20041;-78
2023/01/26 09:55:24;;;;;;;16.05;9.88;;;;;;;;;;5011868;28;20431;-79
2023/01/26 09:57:57;;;;;;;17.40;10.50;;;;;;;;;;5029571;28;20110;-79
2023/01/26 10:00:40;;;;;;;16.05;9.10;;;;;;;;;;5011843;28;20049;-77
2023/01/26 10:03:05;;;;;;;16.88;9.93;;;;;;;;;;5037014;28;20033;-79
2023/01/26 10:05:47;;;;;;;18.00;8.98;;;;;;;;;;5030100;28;20455;-79
2023/01/26 10:08:33;;;;;;;15.57;9.18;;;;;;;;;;5022502;28;20041;-78
2023/01/26 10:11:28;;;;;;;16.70;8.70;;;;;;;;;;5028984;28;20044;-78
2023/01/26 10:13:54;;;;;;;20.13;8.48;;;;;;;;;;5023200;28;20528;-79
2023/01/26 10:16:23;;;;;;;15.98;8.07;;;;;;;;;;5033006;28;20033;-78
2023/01/26 10:18:52;;;;;;;14.70;8.02;;;;;;;;;;5028217;28;20049;-79
2023/01/26 10:21:19;;;;;;;19.20;9.25;;;;;;;;;;5012199;28;20720;-79
2023/01/26 10:23:47;;;;;;;16.92;9.45;;;;;;;;;;5029139;28;20030;-79
2023/01/26 10:26:14;;;;;;;18.10;8.68;;;;;;;;;;5012455;28;20022;-79
2023/01/26 10:28:40;;;;;;;15.35;8.35;;;;;;;;;;5011692;28;20042;-80
2023/01/26 10:31:08;;;;;;;18.83;9.57;;;;;;;;;;5029115;28;20444;-78
2023/01/26 10:33:34;;;;;;;17.27;8.75;;;;;;;;;;5028131;28;20029;-77
2023/01/26 10:35:59;;;;;;;16.92;8.77;;;;;;;;;;5012747;28;20024;-77
2023/01/26 10:38:34;;;;;;;18.65;8.80;;;;;;;;;;5029035;28;20096;-79
2023/01/26 10:41:00;;;;;;;13.52;8.57;;;;;;;;;;5029940;28;20150;-78
2023/01/26 10:43:25;;;;;;;;;;;;;;;;;;5033173;28;20017;-77
2023/01/26 10:45:51;;;;;;;12.73;6.68;;;;;;;;;;5031440;28;19917;-78
2023/01/26 10:48:20;;;;;;;15.23;7.97;;;;;;;;;;5027614;28;20576;-78
2023/01/26 10:50:46;;;;;;;13.90;7.72;;;;;;;;;;5030822;28;20037;-78
2023/01/26 10:53:22;;;;;;;15.45;7.65;;;;;;;;;;5031083;28;20511;-79
2023/01/26 10:55:56;;;;;;;19.05;9.00;;;;;;;;;;5031164;28;20095;-78
2023/01/26 10:58:34;;;;;;;13.48;8.30;;;;;;;;;;5032441;28;20525;-77
2023/01/26 11:00:59;;;;;;;15.07;9.10;;;;;;;;;;5014469;28;20036;-78
2023/01/26 11:03:25;;;;;;;16.17;9.13;;;;;;;;;;5031382;28;20021;-79
2023/01/26 11:05:51;;;;;;;;;;;;;;;;;;5031431;28;20091;-78
2023/01/26 11:08:42;;;;;;;15.15;8.60;;;;;;;;;;5037189;28;19912;-77
2023/01/26 11:11:22;;;;;;;13.18;8.23;;;;;;;;;;5028957;28;20065;-78
2023/01/26 11:13:51;;;;;;;16.45;8.32;;;;;;;;;;5029768;28;20055;-79
2023/01/26 11:16:19;;;;;;;17.00;9.07;;;;;;;;;;5031043;28;20074;-79
2023/01/26 11:18:53;;;;;;;16.85;8.18;;;;;;;;;;5022363;28;20032;-80
2023/01/26 11:21:21;;;;;;;15.77;9.10;;;;;;;;;;5031103;28;20030;-78
2023/01/26 11:23:49;;;;;;;15.73;9.13;;;;;;;;;;5018723;28;20025;-79
2023/01/26 11:26:27;;;;;;;16.08;8.80;;;;;;;;;;5036941;28;20493;-79
2023/01/26 11:29:19;;;;;;;15.35;8.88;;;;;;;;;;5030205;28;20032;-78
2023/01/26 11:31:51;;;;;;;15.80;8.18;;;;;;;;;;5027387;28;20131;-79
2023/01/26 11:34:26;;;;;;;16.92;8.38;;;;;;;;;;5031113;28;20033;-79
2023/01/26 11:37:21;;;;;;;19.20;8.50;;;;;;;;;;5013351;28;20033;-79
2023/01/26 11:39:53;;;;;;;17.40;8.50;;;;;;;;;;5026873;28;20061;-79
2023/01/26 11:42:18;;;;;;;14.55;8.98;;;;;;;;;;5034656;28;20038;-79
2023/01/26 11:44:56;;;;;;;15.38;9.48;;;;;;;;;;5031942;28;20499;-79
2023/01/26 11:47:21;;;;;;;13.85;8.25;;;;;;;;;;5032483;28;20037;-80
2023/01/26 11:49:53;;;;;;;13.70;8.35;;;;;;;;;;5032309;28;20036;-79
2023/01/26 11:52:18;;;;;;;15.35;8.70;;;;;;;;;;5031920;28;20045;-79
2023/01/26 11:54:50;;;;;;;13.18;7.97;;;;;;;;;;5026342;28;20044;-80
2023/01/26 11:57:15;;;;;;;13.98;7.65;;;;;;;;;;5030632;28;20444;-80
2023/01/26 11:59:50;;;;;;;15.18;8.55;;;;;;;;;;5026229;28;20029;-80
2023/01/26 12:02:27;;;;;;;17.27;8.90;;;;;;;;;;5029438;28;20037;-79
2023/01/26 12:04:56;;;;;;;14.35;8.68;;;;;;;;;;5034072;28;20439;-79
2023/01/26 12:07:28;;;;;;;16.00;8.02;;;;;;;;;;5032684;28;20022;-79
2023/01/26 12:09:55;;;;;;;16.30;8.38;;;;;;;;;;5009914;28;20447;-80
2023/01/26 12:12:23;;;;;;;16.80;8.57;;;;;;;;;;5022558;28;20033;-81
2023/01/26 12:15:12;;;;;;;15.05;8.02;;;;;;;;;;5035102;28;20111;-79
2023/01/26 12:17:51;;;;;;;13.98;7.95;;;;;;;;;;5001615;28;20122;-78
2023/01/26 12:20:20;;;;;;;15.23;8.77;;;;;;;;;;5030721;28;20063;-79
2023/01/26 12:22:47;;;;;;;15.70;8.70;;;;;;;;;;5013028;28;20036;-78
2023/01/26 12:25:17;;;;;;;15.18;8.93;;;;;;;;;;5029409;28;20496;-79
2023/01/26 12:27:43;;;;;;;17.27;8.18;;;;;;;;;;5029498;28;20041;-79
2023/01/26 12:30:08;;;;;;;;;;;;;;;;;;5029829;28;20034;-77
2023/01/26 12:32:33;;;;;;;15.38;8.57;;;;;;;;;;5030811;28;19933;-80
2023/01/26 12:34:59;;;;;;;13.75;7.93;;;;;;;;;;5029053;28;20033;-78
2023/01/26 12:37:29;;;;;;;15.40;8.32;;;;;;;;;;5029680;28;20142;-79
2023/01/26 12:39:58;;;;;;;16.83;7.80;;;;;;;;;;5040150;28;20105;-79
2023/01/26 12:42:23;;;;;;;16.98;8.75;;;;;;;;;;5028940;28;20341;-77
2023/01/26 12:44:53;;;;;;;16.75;9.20;;;;;;;;;;5036994;28;20055;-79
2023/01/26 12:47:27;;;;;;;16.88;8.75;;;;;;;;;;5000737;28;20045;-78
2023/01/26 12:49:58;;;;;;;15.32;8.50;;;;;;;;;;5032618;28;20661;-78
2023/01/26 12:52:26;;;;;;;17.13;8.57;;;;;;;;;;5033190;28;20033;-78
2023/01/26 12:55:10;;;;;;;16.15;10.05;;;;;;;;;;5029015;28;20029;-78
2023/01/26 12:57:37;;;;;;;18.63;10.73;;;;;;;;;;5029813;28;20472;-79
2023/01/26 13:00:04;;;;;;;16.65;8.43;;;;;;;;;;5029041;28;20021;-78
2023/01/26 13:02:34;;;;;;;16.30;9.13;;;;;;;;;;5029056;28;20087;-78
2023/01/26 13:04:59;;;;;;;14.88;8.23;;;;;;;;;;5030043;28;20041;-78
2023/01/26 13:07:26;;;;;;;16.50;8.35;;;;;;;;;;5012551;28;20087;-79
2023/01/26 13:10:06;;;;;;;17.23;8.85;;;;;;;;;;5030152;28;20079;-78
2023/01/26 13:12:52;;;;;;;16.02;9.43;;;;;;;;;;5045257;28;20029;-78
2023/01/26 13:15:18;;;;;;;15.63;8.75;;;;;;;;;;5028728;28;20053;-79
2023/01/26 13:17:49;;;;;;;16.20;8.98;;;;;;;;;;5028591;28;20044;-79
2023/01/26 13:20:35;;;;;;;14.23;8.05;;;;;;;;;;5029122;28;20031;-78
2023/01/26 13:23:00;;;;;;;18.42;9.65;;;;;;;;;;5025971;28;20041;-78
2023/01/26 13:25:31;;;;;;;16.85;9.35;;;;;;;;;;5012259;28;20033;-78
2023/01/26 13:27:58;;;;;;;15.75;9.15;;;;;;;;;;5030333;28;20025;-78
2023/01/26 13:30:29;;;;;;;18.45;8.25;;;;;;;;;;5029440;28;20071;-78
2023/01/26 13:33:13;;;;;;;17.63;8.75;;;;;;;;;;5028995;28;20051;-78
2023/01/26 13:35:39;;;;;;;14.32;7.63;;;;;;;;;;5018295;28;20132;-78
2023/01/26 13:38:13;;;;;;;18.02;9.70;;;;;;;;;;5028246;28;20137;-79
2023/01/26 13:40:40;;;;;;;17.40;9.15;;;;;;;;;;5028653;28;20485;-78
2023/01/26 13:43:15;;;;;;;17.10;9.77;;;;;;;;;;5028815;28;20373;-79
2023/01/26 13:45:59;;;;;;;17.00;9.07;;;;;;;;;;5029480;28;20104;-79
2023/01/26 13:48:31;;;;;;;19.63;9.98;;;;;;;;;;5045239;28;20051;-79
2023/01/26 13:50:58;;;;;;;19.08;9.48;;;;;;;;;;5029695;28;20109;-78
2023/01/26 13:53:28;;;;;;;16.08;8.40;;;;;;;;;;5011897;28;20399;-77
2023/01/26 13:55:56;;;;;;;16.50;9.05;;;;;;;;;;5027786;28;20033;-77
2023/01/26 13:58:22;;;;;;;17.73;8.00;;;;;;;;;;5029697;28;20120;-79
2023/01/26 14:01:03;;;;;;;18.35;9.50;;;;;;;;;;5028211;28;20116;-79
2023/01/26 14:03:29;;;;;;;19.35;9.52;;;;;;;;;;5038911;28;20041;-77
2023/01/26 14:06:03;;;;;;;16.40;8.90;;;;;;;;;;5028342;28;20105;-78
2023/01/26 14:08:29;;;;;;;16.08;8.75;;;;;;;;;;5029520;28;20033;-78
2023/01/26 14:10:54;;;;;;;17.50;9.13;;;;;;;;;;5031965;28;20100;-78
2023/01/26 14:13:21;;;;;;;15.95;9.02;;;;;;;;;;5032157;28;20128;-79
2023/01/26 14:15:54;;;;;;;17.70;10.10;;;;;;;;;;5033953;28;20136;-79
2023/01/26 14:18:20;;;;;;;17.83;9.57;;;;;;;;;;5032934;28;20037;-78
2023/01/26 14:20:46;;;;;;;14.85;8.43;;;;;;;;;;5035134;28;20877;-78
2023/01/26 14:23:17;;;;;;;17.27;8.18;;;;;;;;;;5033905;28;20026;-80
2023/01/26 14:25:56;;;;;;;19.75;9.35;;;;;;;;;;5019466;28;20061;-78
2023/01/26 14:28:22;;;;;;;16.40;8.63;;;;;;;;;;5026126;28;20045;-78
2023/01/26 14:30:56;;;;;;;16.60;8.98;;;;;;;;;;5031438;28;20056;-79
2023/01/26 14:33:21;;;;;;;20.33;9.73;;;;;;;;;;5031589;28;20540;-78
2023/01/26 14:35:54;;;;;;;17.90;9.18;;;;;;;;;;5017085;28;20532;-80
2023/01/26 14:38:27;;;;;;;16.38;9.85;;;;;;;;;;5031681;28;20037;-79
2023/01/26 14:40:57;;;;;;;19.58;9.30;;;;;;;;;;5034460;28;20028;-79
2023/01/26 14:43:22;;;;;;;17.48;9.75;;;;;;;;;;5050174;28;20087;-77
2023/01/26 14:46:04;;;;;;;16.48;8.77;;;;;;;;;;5034033;28;20480;-78
2023/01/26 14:48:38;;;;;;;17.73;9.65;;;;;;;;;;5032912;28;20041;-78
2023/01/26 14:51:05;;;;;;;18.23;9.70;;;;;;;;;;5031657;28;20041;-79
2023/01/26 14:53:31;;;;;;;16.42;9.55;;;;;;;;;;5042776;28;20028;-79
2023/01/26 14:55:56;;;;;;;24.13;9.65;;;;;;;;;;5037718;28;20401;-79
2023/01/26 14:58:31;;;;;;;19.98;10.32;;;;;;;;;;5031972;28;20033;-79
2023/01/26 15:00:57;;;;;;;17.90;9.45;;;;;;;;;;5029636;28;20025;-79
2023/01/26 15:03:22;;;;;;;;;;;;;;;;;;5040481;28;20528;-79
2023/01/26 15:05:48;;;;;;;18.05;9.35;;;;;;;;;;5039262;28;20012;-77
2023/01/26 15:08:20;;;;;;;16.95;9.45;;;;;;;;;;5032764;28;20061;-78
2023/01/26 15:10:49;;;;;;;20.13;9.98;;;;;;;;;;5032735;28;20087;-78
2023/01/26 15:13:17;;;;;;;19.15;9.95;;;;;;;;;;5031127;28;20056;-78
2023/01/26 15:15:47;;;;;;;16.85;8.80;;;;;;;;;;5032425;28;20570;-77
2023/01/26 15:18:13;;;;;;;17.90;9.55;;;;;;;;;;5032424;28;20376;-78
2023/01/26 15:20:52;;;;;;;19.02;9.60;;;;;;;;;;5030171;28;20470;-76
2023/01/26 15:23:31;;;;;;;16.73;9.55;;;;;;;;;;5031592;28;20034;-78
2023/01/26 15:26:02;;;;;;;19.30;9.77;;;;;;;;;;5031163;28;20038;-78